createdAt,value
2019-05-26T00:02:03.030Z,22.03
2019-05-26T00:04:29.267Z,22.37
2019-05-26T00:06:55.508Z,22.83
2019-05-26T00:09:21.727Z,23.33
2019-05-26T00:11:47.958Z,23.27
2019-05-26T00:14:14.158Z,22.67
2019-05-26T00:16:40.272Z,23.27
2019-05-26T00:19:06.422Z,24.23
2019-05-26T00:21:32.530Z,23.70
2019-05-26T00:23:58.741Z,25.73
2019-05-26T00:26:24.892Z,24.73
2019-05-26T00:28:51.089Z,24.93
2019-05-26T00:31:17.427Z,24.13
2019-05-26T00:33:43.639Z,24.73
2019-05-26T00:36:09.747Z,24.07
2019-05-26T00:38:35.959Z,23.70
2019-05-26T00:41:02.212Z,23.53
2019-05-26T00:43:28.463Z,24.20
2019-05-26T00:45:54.652Z,23.27
2019-05-26T00:48:20.792Z,25.03
2019-05-26T00:50:48.722Z,23.80
2019-05-26T00:53:14.830Z,25.47
2019-05-26T00:55:40.954Z,24.27
2019-05-26T00:58:07.097Z,24.17
2019-05-26T01:00:38.250Z,25.50
2019-05-26T01:03:04.361Z,25.60
2019-05-26T01:05:30.521Z,25.40
2019-05-26T01:08:05.746Z,25.07
2019-05-26T01:10:24.776Z,26.07
2019-05-26T01:12:50.982Z,25.83
2019-05-26T01:15:17.486Z,25.53
2019-05-26T01:17:43.651Z,25.37
2019-05-26T01:20:10.253Z,24.73
2019-05-26T01:22:36.425Z,25.63
2019-05-26T01:25:05.384Z,26.87
2019-05-26T01:27:31.608Z,26.10
2019-05-26T01:29:57.813Z,25.93
2019-05-26T01:32:24.050Z,25.90
2019-05-26T01:34:50.361Z,26.97
2019-05-26T01:37:16.691Z,26.30
2019-05-26T01:39:42.934Z,25.33
2019-05-26T01:42:09.099Z,26.67
2019-05-26T01:44:35.296Z,25.70
2019-05-26T01:49:25.301Z,25.33
2019-05-26T01:51:51.578Z,25.63
2019-05-26T01:54:17.705Z,26.07
2019-05-26T01:56:43.859Z,24.73
2019-05-26T01:59:10.153Z,24.67
2019-05-26T02:01:36.293Z,24.73
2019-05-26T02:04:02.538Z,24.73
2019-05-26T02:06:28.638Z,26.03
2019-05-26T02:08:54.769Z,25.40
2019-05-26T02:11:21.140Z,25.20
2019-05-26T02:13:47.484Z,25.10
2019-05-26T02:16:13.672Z,25.20
2019-05-26T02:18:39.905Z,25.37
2019-05-26T02:21:06.141Z,24.90
2019-05-26T02:23:32.359Z,24.20
2019-05-26T02:25:58.529Z,24.57
2019-05-26T02:28:24.733Z,25.07
2019-05-26T02:30:51.050Z,25.23
2019-05-26T02:33:18.082Z,25.33
2019-05-26T02:35:44.328Z,26.50
2019-05-26T02:38:10.509Z,24.50
2019-05-26T02:40:36.641Z,24.97
2019-05-26T02:43:02.857Z,25.23
2019-05-26T02:45:29.060Z,25.90
2019-05-26T02:47:55.303Z,25.50
2019-05-26T02:50:22.027Z,26.37
2019-05-26T02:52:48.313Z,26.10
2019-05-26T02:55:15.329Z,26.13
2019-05-26T02:57:41.559Z,26.23
2019-05-26T03:00:09.867Z,26.37
2019-05-26T03:02:36.294Z,26.83
2019-05-26T03:05:05.497Z,27.03
2019-05-26T03:07:31.916Z,28.40
2019-05-26T03:09:59.258Z,26.77
2019-05-26T03:12:27.357Z,27.83
2019-05-26T03:14:55.450Z,26.90
2019-05-26T03:17:23.214Z,27.87
2019-05-26T03:19:50.113Z,27.33
2019-05-26T03:22:18.032Z,26.30
2019-05-26T03:24:47.780Z,26.50
2019-05-26T03:29:45.325Z,26.00
2019-05-26T03:32:11.552Z,27.23
2019-05-26T03:34:37.767Z,24.93
2019-05-26T03:37:03.968Z,26.87
2019-05-26T03:39:43.628Z,25.63
2019-05-26T03:41:58.119Z,25.63
2019-05-26T03:44:24.331Z,25.63
2019-05-26T03:46:50.612Z,24.97
2019-05-26T03:49:16.825Z,25.77
2019-05-26T03:51:43.034Z,26.17
2019-05-26T03:54:09.262Z,24.40
2019-05-26T03:56:35.381Z,24.53
2019-05-26T03:59:01.520Z,26.03
2019-05-26T04:01:27.758Z,25.23
2019-05-26T04:03:53.987Z,26.13
2019-05-26T04:06:20.399Z,25.23
2019-05-26T04:08:46.760Z,25.63
2019-05-26T04:11:12.999Z,27.03
2019-05-26T04:13:39.219Z,26.87
2019-05-26T04:16:05.681Z,26.93
2019-05-26T04:18:31.978Z,26.40
2019-05-26T04:20:58.128Z,26.80
2019-05-26T04:23:24.369Z,26.80
2019-05-26T04:25:50.693Z,25.80
2019-05-26T04:28:17.004Z,25.93
2019-05-26T04:30:43.170Z,25.07
2019-05-26T04:33:09.371Z,24.40
2019-05-26T04:35:35.585Z,25.83
2019-05-26T04:38:01.927Z,26.03
2019-05-26T04:40:28.386Z,25.67
2019-05-26T04:42:54.571Z,25.83
2019-05-26T04:45:20.929Z,25.10
2019-05-26T04:47:47.083Z,24.53
2019-05-26T04:50:13.608Z,25.50
2019-05-26T04:52:39.829Z,25.50
2019-05-26T04:55:07.923Z,24.53
2019-05-26T04:57:34.030Z,24.80
2019-05-26T05:00:00.279Z,25.43
2019-05-26T05:02:26.483Z,25.07
2019-05-26T05:04:52.678Z,26.77
2019-05-26T05:07:18.827Z,25.10
2019-05-26T05:09:45.043Z,23.73
2019-05-26T05:12:11.264Z,24.93
2019-05-26T05:14:37.639Z,26.00
2019-05-26T05:17:03.870Z,25.47
2019-05-26T05:19:30.099Z,25.30
2019-05-26T05:21:56.346Z,24.77
2019-05-26T05:24:22.596Z,23.27
2019-05-26T05:26:48.842Z,24.10
2019-05-26T05:29:15.090Z,22.47
2019-05-26T05:31:41.325Z,21.73
2019-05-26T05:34:07.532Z,22.90
2019-05-26T05:36:33.759Z,21.00
2019-05-26T05:38:59.987Z,20.60
2019-05-26T05:41:26.205Z,22.97
2019-05-26T05:43:52.371Z,21.83
2019-05-26T05:46:18.575Z,22.10
2019-05-26T05:48:44.708Z,23.43
2019-05-26T05:51:10.990Z,24.00
2019-05-26T05:53:37.218Z,23.97
2019-05-26T05:56:05.279Z,29.27
2019-05-26T05:58:31.486Z,26.50
2019-05-26T06:00:57.613Z,23.93
2019-05-26T06:03:23.744Z,24.30
2019-05-26T06:05:49.891Z,28.73
2019-05-26T06:08:16.206Z,24.10
2019-05-26T06:10:42.577Z,23.60
2019-05-26T06:13:08.797Z,24.30
2019-05-26T06:15:34.922Z,22.83
2019-05-26T06:18:01.067Z,23.37
2019-05-26T06:20:27.300Z,22.43
2019-05-26T06:22:53.414Z,22.10
2019-05-26T06:25:19.727Z,22.50
2019-05-26T06:27:45.968Z,23.33
2019-05-26T06:30:12.585Z,21.90
2019-05-26T06:32:38.702Z,22.10
2019-05-26T06:35:05.798Z,21.73
2019-05-26T06:37:31.992Z,20.37
2019-05-26T06:39:58.503Z,19.63
2019-05-26T06:42:24.675Z,19.90
2019-05-26T06:44:53.996Z,18.00
2019-05-26T06:47:18.927Z,18.60
2019-05-26T06:49:45.155Z,19.20
2019-05-26T06:52:11.388Z,19.20
2019-05-26T06:54:37.635Z,17.50
2019-05-26T06:57:04.500Z,17.77
2019-05-26T06:59:30.705Z,17.40
2019-05-26T07:01:56.847Z,16.50
2019-05-26T07:04:22.982Z,16.07
2019-05-26T07:06:49.185Z,14.60
2019-05-26T07:09:15.408Z,15.00
2019-05-26T07:11:55.605Z,13.97
2019-05-26T07:14:09.571Z,13.73
2019-05-26T07:16:38.438Z,14.10
2019-05-26T07:19:03.738Z,14.33
2019-05-26T07:21:29.978Z,14.17
2019-05-26T07:23:56.094Z,13.67
2019-05-26T07:26:22.232Z,13.60
2019-05-26T07:28:48.383Z,14.23
2019-05-26T07:31:14.513Z,13.27
2019-05-26T07:33:40.747Z,12.27
2019-05-26T07:36:06.945Z,12.27
2019-05-26T07:38:33.054Z,11.77
2019-05-26T07:40:59.307Z,12.23
2019-05-26T07:43:27.951Z,12.33
2019-05-26T07:45:53.450Z,11.50
2019-05-26T07:48:19.586Z,11.53
2019-05-26T07:50:45.817Z,11.43
2019-05-26T07:53:12.126Z,11.00
2019-05-26T07:55:38.266Z,12.33
2019-05-26T07:58:04.425Z,11.30
2019-05-26T08:00:30.643Z,11.20
2019-05-26T08:02:56.785Z,12.47
2019-05-26T08:05:22.995Z,12.43
2019-05-26T08:07:49.273Z,13.90
2019-05-26T08:10:16.003Z,13.33
2019-05-26T08:12:42.192Z,13.07
2019-05-26T08:15:08.844Z,12.30
2019-05-26T08:17:35.071Z,12.63
2019-05-26T08:20:02.780Z,12.30
2019-05-26T08:22:29.020Z,11.60
2019-05-26T08:24:55.259Z,10.87
2019-05-26T08:27:21.477Z,10.13
2019-05-26T08:29:47.631Z,10.40
2019-05-26T08:32:15.120Z,7.93
2019-05-26T08:34:41.383Z,6.87
2019-05-26T08:37:07.499Z,7.07
2019-05-26T08:39:33.648Z,6.80
2019-05-26T08:41:59.841Z,4.00
2019-05-26T08:44:25.952Z,2.97
2019-05-26T08:46:52.114Z,2.23
2019-05-26T08:49:18.313Z,2.10
2019-05-26T08:51:44.567Z,2.57
2019-05-26T08:54:10.861Z,2.73
2019-05-26T08:56:37.130Z,2.97
2019-05-26T08:59:03.337Z,1.90
2019-05-26T09:01:29.564Z,1.50
2019-05-26T09:03:55.698Z,1.37
2019-05-26T09:06:21.948Z,1.50
2019-05-26T09:08:48.121Z,1.50
2019-05-26T09:11:14.317Z,1.37
2019-05-26T09:13:40.520Z,1.90
2019-05-26T09:16:06.664Z,2.00
2019-05-26T09:18:32.820Z,1.40
2019-05-26T09:20:59.038Z,1.70
2019-05-26T09:23:25.285Z,2.50
2019-05-26T09:25:51.393Z,3.07
2019-05-26T09:28:17.510Z,3.37
2019-05-26T09:30:43.680Z,3.20
2019-05-26T09:33:09.908Z,3.13
2019-05-26T09:35:36.048Z,2.90
2019-05-26T09:38:02.372Z,3.30
2019-05-26T09:40:28.589Z,5.00
2019-05-26T09:42:54.817Z,4.83
2019-05-26T09:45:21.037Z,4.50
2019-05-26T09:47:47.231Z,4.80
2019-05-26T09:50:14.740Z,5.13
2019-05-26T09:52:40.905Z,5.83
2019-05-26T09:55:07.826Z,5.73
2019-05-26T09:57:34.140Z,5.40
2019-05-26T10:00:02.120Z,5.23
2019-05-26T10:02:28.327Z,4.57
2019-05-26T10:04:54.455Z,5.20
2019-05-26T10:07:20.698Z,4.77
2019-05-26T10:09:46.913Z,4.37
2019-05-26T10:12:13.217Z,3.97
2019-05-26T10:14:39.384Z,5.47
2019-05-26T10:17:05.745Z,5.23
2019-05-26T10:19:31.965Z,5.03
2019-05-26T10:21:58.152Z,4.23
2019-05-26T10:24:24.667Z,3.37
2019-05-26T10:26:50.907Z,3.87
2019-05-26T10:29:17.180Z,3.83
2019-05-26T10:31:43.460Z,4.63
2019-05-26T10:34:09.708Z,4.00
2019-05-26T10:36:35.925Z,4.57
2019-05-26T10:39:04.666Z,4.57
2019-05-26T10:41:30.862Z,4.30
2019-05-26T10:43:57.005Z,4.13
2019-05-26T10:46:23.226Z,4.40
2019-05-26T10:48:49.477Z,4.37
2019-05-26T10:51:15.720Z,3.30
2019-05-26T10:53:42.058Z,2.10
2019-05-26T10:56:08.233Z,1.80
2019-05-26T10:58:34.378Z,1.53
2019-05-26T11:01:00.724Z,1.90
2019-05-26T11:03:27.054Z,2.40
2019-05-26T11:05:53.185Z,2.00
2019-05-26T11:08:19.443Z,1.57
2019-05-26T11:10:45.637Z,1.50
2019-05-26T11:13:11.837Z,1.90
2019-05-26T11:15:38.188Z,2.10
2019-05-26T11:18:04.556Z,2.70
2019-05-26T11:20:30.939Z,2.33
2019-05-26T11:22:57.192Z,2.80
2019-05-26T11:25:23.400Z,2.70
2019-05-26T11:27:49.891Z,2.60
2019-05-26T11:30:17.737Z,2.13
2019-05-26T11:32:43.907Z,1.80
2019-05-26T11:35:12.309Z,2.17
2019-05-26T11:37:38.711Z,1.87
2019-05-26T11:40:06.091Z,1.60
2019-05-26T11:42:32.318Z,1.57
2019-05-26T11:44:58.586Z,1.50
2019-05-26T11:47:24.877Z,1.63
2019-05-26T11:49:51.379Z,2.73
2019-05-26T11:52:20.241Z,1.70
2019-05-26T11:54:45.646Z,1.90
2019-05-26T11:57:11.888Z,2.33
2019-05-26T11:59:38.132Z,2.63
2019-05-26T12:02:04.532Z,2.60
2019-05-26T12:04:30.773Z,2.40
2019-05-26T12:06:56.999Z,2.43
2019-05-26T12:09:23.261Z,2.47
2019-05-26T12:11:49.544Z,3.10
2019-05-26T12:14:15.845Z,3.37
2019-05-26T12:16:42.141Z,3.23
2019-05-26T12:19:08.638Z,3.57
2019-05-26T12:21:34.865Z,3.03
2019-05-26T12:24:01.020Z,3.43
2019-05-26T12:26:27.235Z,4.07
2019-05-26T12:28:53.441Z,3.50
2019-05-26T12:31:19.573Z,3.53
2019-05-26T12:33:45.729Z,3.70
2019-05-26T12:36:11.957Z,3.20
2019-05-26T12:38:39.958Z,3.20
2019-05-26T12:41:06.309Z,3.00
2019-05-26T12:43:32.527Z,3.33
2019-05-26T12:45:58.645Z,3.73
2019-05-26T12:48:24.789Z,2.80
2019-05-26T12:50:50.930Z,2.70
2019-05-26T12:53:17.146Z,2.43
2019-05-26T12:55:43.292Z,3.30
2019-05-26T12:58:09.409Z,2.50
2019-05-26T13:00:48.038Z,2.50
2019-05-26T13:03:03.718Z,2.67
2019-05-26T13:05:32.367Z,2.90
2019-05-26T13:07:58.479Z,2.90
2019-05-26T13:10:24.711Z,2.87
2019-05-26T13:12:50.917Z,2.93
2019-05-26T13:15:19.039Z,3.07
2019-05-26T13:17:45.419Z,2.50
2019-05-26T13:20:13.326Z,2.87
2019-05-26T13:22:40.717Z,3.13
2019-05-26T13:25:07.914Z,2.60
2019-05-26T13:27:34.232Z,2.67
2019-05-26T13:30:00.417Z,2.40
2019-05-26T13:32:26.619Z,2.73
2019-05-26T13:34:52.863Z,2.37
2019-05-26T13:37:18.990Z,3.33
2019-05-26T13:39:45.212Z,2.40
2019-05-26T13:42:11.345Z,2.60
2019-05-26T13:44:37.470Z,2.60
2019-05-26T13:47:03.714Z,2.83
2019-05-26T13:49:29.847Z,2.20
2019-05-26T13:51:55.959Z,2.60
2019-05-26T13:54:22.198Z,2.93
2019-05-26T13:56:48.526Z,2.37
2019-05-26T13:59:14.737Z,2.43
2019-05-26T14:01:40.965Z,2.50
2019-05-26T14:04:07.249Z,2.90
2019-05-26T14:06:33.371Z,2.47
2019-05-26T14:09:02.159Z,2.53
2019-05-26T14:11:27.539Z,2.30
2019-05-26T14:13:53.873Z,2.37
2019-05-26T14:16:21.203Z,2.20
2019-05-26T14:18:47.812Z,1.80
2019-05-26T14:21:13.938Z,2.70
2019-05-26T14:23:40.254Z,2.50
2019-05-26T14:26:06.478Z,2.77
2019-05-26T14:28:32.681Z,2.83
2019-05-26T14:30:58.820Z,3.83
2019-05-26T14:33:24.956Z,3.63
2019-05-26T14:35:51.169Z,3.83
2019-05-26T14:38:17.307Z,3.40
2019-05-26T14:40:43.420Z,2.87
2019-05-26T14:43:09.548Z,2.67
2019-05-26T14:45:35.806Z,2.60
2019-05-26T14:48:02.239Z,2.50
2019-05-26T14:50:28.547Z,2.70
2019-05-26T14:52:54.847Z,2.97
2019-05-26T14:55:21.137Z,3.87
2019-05-26T14:57:47.337Z,2.87
2019-05-26T15:00:14.493Z,1.47
2019-05-26T15:02:40.715Z,1.63
2019-05-26T15:05:08.663Z,2.17
2019-05-26T15:07:34.795Z,2.77
2019-05-26T15:10:01.208Z,3.50
2019-05-26T15:12:27.459Z,3.13
2019-05-26T15:14:53.731Z,3.70
2019-05-26T15:17:20.035Z,2.47
2019-05-26T15:19:46.228Z,2.27
2019-05-26T15:22:12.698Z,2.30
2019-05-26T15:24:38.966Z,1.33
2019-05-26T15:27:05.220Z,1.20
2019-05-26T15:29:31.519Z,1.07
2019-05-26T15:31:58.277Z,0.93
2019-05-26T15:34:24.542Z,0.73
2019-05-26T15:36:50.716Z,1.00
2019-05-26T15:39:16.960Z,0.80
2019-05-26T15:41:43.515Z,0.93
2019-05-26T15:44:09.813Z,0.83
2019-05-26T15:46:36.042Z,0.70
2019-05-26T15:49:02.315Z,0.93
2019-05-26T15:51:28.604Z,0.77
2019-05-26T15:53:54.770Z,0.60
2019-05-26T15:56:20.988Z,0.90
2019-05-26T15:58:47.130Z,0.90
2019-05-26T16:01:13.407Z,0.80
2019-05-26T16:03:39.638Z,0.80
2019-05-26T16:06:06.321Z,0.97
2019-05-26T16:08:32.558Z,1.30
2019-05-26T16:10:58.782Z,1.37
2019-05-26T16:13:25.042Z,1.47
2019-05-26T16:15:51.250Z,1.57
2019-05-26T16:18:17.383Z,1.43
2019-05-26T16:20:43.527Z,1.60
2019-05-26T16:23:09.856Z,1.67
2019-05-26T16:25:36.589Z,1.77
2019-05-26T16:28:03.057Z,1.70
2019-05-26T16:30:31.169Z,2.33
2019-05-26T16:32:57.317Z,1.80
2019-05-26T16:35:23.517Z,2.10
2019-05-26T16:37:49.922Z,2.27
2019-05-26T16:40:16.326Z,1.97
2019-05-26T16:42:42.958Z,2.70
2019-05-26T16:45:09.489Z,1.83
2019-05-26T16:47:35.798Z,2.20
2019-05-26T16:50:04.083Z,2.50
2019-05-26T16:52:30.304Z,2.23
2019-05-26T16:54:57.393Z,2.43
2019-05-26T16:57:23.771Z,2.97
2019-05-26T16:59:50.444Z,2.83
2019-05-26T17:02:16.613Z,2.80
2019-05-26T17:04:42.890Z,3.17
2019-05-26T17:07:09.260Z,3.00
2019-05-26T17:09:35.354Z,2.93
2019-05-26T17:12:01.620Z,2.73
2019-05-26T17:14:27.850Z,2.70
2019-05-26T17:16:54.089Z,2.90
2019-05-26T17:19:20.429Z,3.60
2019-05-26T17:21:46.633Z,3.40
2019-05-26T17:24:13.568Z,3.10
2019-05-26T17:26:40.255Z,3.80
2019-05-26T17:29:06.621Z,3.30
2019-05-26T17:31:32.777Z,3.93
2019-05-26T17:33:59.010Z,3.80
2019-05-26T17:36:25.256Z,4.50
2019-05-26T17:38:51.550Z,4.47
2019-05-26T17:41:17.795Z,4.37
2019-05-26T17:43:44.032Z,4.30
2019-05-26T17:46:10.247Z,4.27
2019-05-26T17:48:36.421Z,4.57
2019-05-26T17:51:02.729Z,5.20
2019-05-26T17:53:32.206Z,4.40
2019-05-26T17:55:58.451Z,5.30
2019-05-26T17:58:24.582Z,5.50
2019-05-26T18:00:50.799Z,5.77
2019-05-26T18:03:17.636Z,5.47
2019-05-26T18:05:43.750Z,5.13
2019-05-26T18:08:10.057Z,5.90
2019-05-26T18:10:36.206Z,5.30
2019-05-26T18:13:02.707Z,5.03
2019-05-26T18:15:31.137Z,5.00
2019-05-26T18:17:57.373Z,5.60
2019-05-26T18:20:23.587Z,5.17
2019-05-26T18:22:49.867Z,5.40
2019-05-26T18:25:16.276Z,5.20
2019-05-26T18:27:42.594Z,5.27
2019-05-26T18:30:09.120Z,5.95
2019-05-26T18:32:35.840Z,5.50
2019-05-26T18:35:04.656Z,6.73
2019-05-26T18:37:34.313Z,6.23
2019-05-26T18:40:00.553Z,6.60
2019-05-26T18:42:26.755Z,6.70
2019-05-26T18:44:52.974Z,6.60
2019-05-26T18:47:19.202Z,6.37
2019-05-26T18:49:45.301Z,5.37
2019-05-26T18:52:11.438Z,5.20
2019-05-26T18:54:37.831Z,4.83
2019-05-26T18:57:04.236Z,6.10
2019-05-26T18:59:30.455Z,6.63
2019-05-26T19:01:56.612Z,5.83
2019-05-26T19:04:22.835Z,5.40
2019-05-26T19:06:49.031Z,5.73
2019-05-26T19:09:15.214Z,4.73
2019-05-26T19:11:41.337Z,5.33
2019-05-26T19:14:07.887Z,4.27
2019-05-26T19:16:36.068Z,5.07
2019-05-26T19:19:03.128Z,4.23
2019-05-26T19:21:31.571Z,4.10
2019-05-26T19:23:57.982Z,3.40
2019-05-26T19:26:24.660Z,3.43
2019-05-26T19:28:51.410Z,3.40
2019-05-26T19:31:18.082Z,3.63
2019-05-26T19:33:44.497Z,3.47
2019-05-26T19:36:10.745Z,3.57
2019-05-26T19:38:37.304Z,3.20
2019-05-26T19:41:03.927Z,2.97
2019-05-26T19:43:30.371Z,3.63
2019-05-26T19:45:57.143Z,3.57
2019-05-26T19:48:35.886Z,5.07
2019-05-26T19:50:52.485Z,5.57
2019-05-26T19:53:19.122Z,6.53
2019-05-26T19:55:45.728Z,7.97
2019-05-26T19:58:12.285Z,7.37
2019-05-26T20:00:38.938Z,8.40
2019-05-26T20:03:05.528Z,8.23
2019-05-26T20:05:32.091Z,8.43
2019-05-26T20:07:58.601Z,7.93
2019-05-26T20:10:25.197Z,10.30
2019-05-26T20:12:51.677Z,9.43
2019-05-26T20:15:18.651Z,9.57
2019-05-26T20:17:45.318Z,10.43
2019-05-26T20:20:12.552Z,10.77
2019-05-26T20:22:39.162Z,10.87
2019-05-26T20:25:07.154Z,11.37
2019-05-26T20:27:33.985Z,11.97
2019-05-26T20:30:00.667Z,12.70
2019-05-26T20:32:27.124Z,11.30
2019-05-26T20:34:53.554Z,12.50
2019-05-26T20:39:49.335Z,13.57
2019-05-26T20:42:18.554Z,13.80
2019-05-26T20:44:45.592Z,14.90
2019-05-26T20:47:12.385Z,14.37
2019-05-26T20:49:45.323Z,14.37
2019-05-26T20:52:07.406Z,14.07
2019-05-26T20:54:34.079Z,14.27
2019-05-26T20:57:01.012Z,13.90
2019-05-26T20:59:27.337Z,14.17
2019-05-26T21:01:54.151Z,13.57
2019-05-26T21:04:20.773Z,12.93
2019-05-26T21:06:47.997Z,14.00
2019-05-26T21:09:14.838Z,13.87
2019-05-26T21:11:41.452Z,13.40
2019-05-26T21:14:08.155Z,14.17
2019-05-26T21:16:34.851Z,16.20
2019-05-26T21:19:01.486Z,16.30
2019-05-26T21:21:28.204Z,16.80
2019-05-26T21:23:54.763Z,18.30
2019-05-26T21:26:21.615Z,17.27
2019-05-26T21:28:48.215Z,15.63
2019-05-26T21:31:15.087Z,14.93
2019-05-26T21:33:41.810Z,16.00
2019-05-26T21:36:08.309Z,15.90
2019-05-26T21:38:34.941Z,16.87
2019-05-26T21:41:01.623Z,17.37
2019-05-26T21:43:28.051Z,19.40
2019-05-26T21:45:54.510Z,20.70
2019-05-26T21:48:21.041Z,21.23
2019-05-26T21:50:47.480Z,21.80
2019-05-26T21:53:14.049Z,22.03
2019-05-26T21:55:40.690Z,21.90
2019-05-26T21:58:07.005Z,21.30
2019-05-26T22:00:41.673Z,22.67
2019-05-26T22:03:08.196Z,21.57
2019-05-26T22:05:34.901Z,22.07
2019-05-26T22:08:01.478Z,24.03
2019-05-26T22:10:28.084Z,22.67
2019-05-26T22:12:54.903Z,24.93
2019-05-26T22:15:21.637Z,24.67
2019-05-26T22:17:48.056Z,25.00
2019-05-26T22:20:14.678Z,26.73
2019-05-26T22:22:41.382Z,27.10
2019-05-26T22:25:08.194Z,26.10
2019-05-26T22:27:34.859Z,23.10
2019-05-26T22:30:01.607Z,22.60
2019-05-26T22:32:28.243Z,19.90
2019-05-26T22:34:54.987Z,17.13
2019-05-26T22:37:21.774Z,15.73
2019-05-26T22:39:48.232Z,13.60
2019-05-26T22:42:14.646Z,13.13
2019-05-26T22:44:41.342Z,10.73
2019-05-26T22:47:08.006Z,11.53
2019-05-26T22:49:34.783Z,10.83
2019-05-26T22:52:01.521Z,11.33
2019-05-26T22:54:27.932Z,10.33
2019-05-26T22:56:54.575Z,10.20
2019-05-26T22:59:21.179Z,10.27
2019-05-26T23:01:47.807Z,10.13
2019-05-26T23:04:14.363Z,10.00
2019-05-26T23:06:40.979Z,9.03
2019-05-26T23:09:07.664Z,9.90
2019-05-26T23:11:34.176Z,9.00
2019-05-26T23:14:01.009Z,10.20
2019-05-26T23:16:27.610Z,9.33
2019-05-26T23:18:54.097Z,10.13
2019-05-26T23:21:20.941Z,9.70
2019-05-26T23:23:47.629Z,8.73
2019-05-26T23:26:14.014Z,10.17
2019-05-26T23:28:40.722Z,9.47
2019-05-26T23:31:07.307Z,9.10
2019-05-26T23:33:33.889Z,9.77
2019-05-26T23:36:00.549Z,9.30
2019-05-26T23:38:27.170Z,9.73
2019-05-26T23:40:53.564Z,9.90
2019-05-26T23:43:20.108Z,10.07
2019-05-26T23:45:46.442Z,9.17
2019-05-26T23:48:12.877Z,9.47
2019-05-26T23:50:39.308Z,9.77
2019-05-26T23:53:05.775Z,9.57
2019-05-26T23:55:32.220Z,9.47
2019-05-26T23:57:58.658Z,10.17
